SASA/SLA METAR and TAF weather

Enter ICAO airport designator
Station Type Date Time Source
SASA METAR 2020/03/31 08:00 UTC NOAA

SASA 310800Z 00000KT 9999 VCSH SCT015 BKN100 19/19 Q1017


Station Type Date Time Source
SASA Decoded METAR 2020/03/31 08:00 UTC NOAA

Salta Aerodrome, Argentina (SASA) 24-51S 065-29W 1221M
Mar 31, 2020 - 04:00 AM EDT / 2020.03.31 0800 UTC
Wind: Calm:0
Visibility: greater than 7 mile(s):0
Sky conditions: mostly cloudy
Weather: showers in the vicinity
Temperature: 66 F (19 C)
Dew Point: 66 F (19 C)
Relative Humidity: 100%
Pressure (altimeter): 30.03 in. Hg (1017 hPa)
ob: SASA 310800Z 00000KT 9999 VCSH SCT015 BKN100 19/19 Q1017
cycle: 8

Station Type Date Time Source
SASA TAF 2020/03/31 06:03 UTC NOAA

TAF SASA 310500Z 3106/0106 VRB02KT 8000 -RA SCT020 OVC040 TX25/3118Z TN17/3110Z PROB40 3107/3110 VRB02KT 4000 RA +DZ FEW007 OVC010
BECMG 3112/3115 05010KT 9999 BKN020

Example: see airport list